1929 NOT_NAMED (1929040S14125)


IBTrACS version v04r00. Visit IBTrACS website for data access.
Please direct all questions to the IBTrACS Q and A forum

Storm track - Intensity - Wind Radii - Intensity Data - Source Data - All data

Summary Information

Storm ID 1929040S14125
Start Feb 8 23Z
Landfall Feb 12 09Z
End Feb 15 01Z
ATCF IDs
Track status Best track data.

Storm track plot

Map of storm track

Intensity plots

No Intensity information for this storm


Radial wind information

No radial wind information for this storm


Position and Intensity Table

BASIN ISO_TIME_________ NATURE LAT LON
degrees north degrees east
SI 1929-02-08 23:00:00 NR -14.00 125.00
SI 1929-02-09 00:00:00 NR -14.11 124.94
SI 01:00:00 NR -14.12 124.91
SI 03:00:00 NR -14.26 124.78
SI 06:00:00 NR -14.47 124.58
SI 09:00:00 NR -14.68 124.36
SI 11:00:00 NR -14.86 124.20
SI 12:00:00 NR -14.96 124.12
SI 15:00:00 NR -15.27 123.85
SI 18:00:00 NR -15.59 123.55
SI 21:00:00 NR -15.91 123.23
SI 23:00:00 NR -16.13 123.01
SI 1929-02-10 00:00:00 NR -16.23 122.89
SI 01:00:00 NR -16.33 122.78
SI 03:00:00 NR -16.54 122.54
SI 04:00:00 NR -16.63 122.43
SI 06:00:00 NR -16.81 122.21
SI 09:00:00 NR -17.04 121.91
SI 11:00:00 NR -17.18 121.71
SI 12:00:00 NR -17.25 121.62
SI 15:00:00 NR -17.46 121.32
SI 18:00:00 NR -17.64 121.02
SI 21:00:00 NR -17.81 120.70
SI 23:00:00 NR -17.92 120.48
SI 1929-02-11 00:00:00 NR -17.97 120.37
SI 01:00:00 NR -18.02 120.26
SI 03:00:00 NR -18.10 120.06
SI 06:00:00 NR -18.20 119.75
SI 09:00:00 NR -18.32 119.43
SI 11:00:00 NR -18.41 119.20
SI 12:00:00 NR -18.46 119.08
SI 15:00:00 NR -18.63 118.66
SI 18:00:00 NR -18.86 118.18
SI 21:00:00 NR -19.15 117.63
SI 23:00:00 NR -19.38 117.23
SI 1929-02-12 00:00:00 NR -19.52 117.02
SI 01:00:00 NR -19.66 116.80
SI 03:00:00 NR -19.90 116.29
SI 06:00:00 NR -20.42 115.55
SI 07:00:00 NR -21.01 115.21
SI 09:00:00 NR -21.82 114.80
SI 10:00:00 NR -22.27 114.63
SI 11:00:00 NR -22.63 114.50
SI 12:00:00 NR -22.81 114.41
SI 15:00:00 NR -23.24 114.20
SI 18:00:00 NR -23.54 114.10
SI 21:00:00 NR -23.75 114.09
SI 23:00:00 NR -23.87 114.11
SI 1929-02-13 00:00:00 NR -23.93 114.13
SI 01:00:00 NR -23.98 114.16
SI 03:00:00 NR -24.18 114.17
SI 06:00:00 NR -24.48 114.20
SI 09:00:00 NR -24.77 114.27
SI 11:00:00 NR -24.95 114.32
SI 12:00:00 NR -25.05 114.34
SI 15:00:00 NR -25.32 114.43
SI 18:00:00 NR -25.59 114.54
SI 21:00:00 NR -25.86 114.66
SI 23:00:00 NR -26.04 114.76
SI 1929-02-14 00:00:00 NR -26.13 114.80
SI 01:00:00 NR -26.19 114.82
SI 03:00:00 NR -26.37 114.90
SI 06:00:00 NR -26.71 115.07
SI 09:00:00 NR -27.12 115.30
SI 11:00:00 NR -27.38 115.49
SI 12:00:00 NR -27.51 115.59
SI 15:00:00 NR -27.89 115.89
SI 18:00:00 NR -28.22 116.18
SI 21:00:00 NR -28.55 116.50
SI 23:00:00 NR -28.78 116.74
SI 1929-02-15 00:00:00 NR -28.85 116.86
SI 01:00:00 NR -29.00 117.00

Source Information

Agency Information
USA
TOKYO
CMA
HKO
NEWDELHI
REUNION WMO-Best-Tracks.txt:Line=3253:xxxx929463
BOM IDCKMSTM0S.csv:Line=672:unnamed
NADI
WELLINGTON
DS824
TD9636 cons_worldwide_trop_cyclone_18710101-19891231-006:Line=1718
TD9635
NEUMANN
MLC

All available IBTrACS Data

SEASON BASIN SUBBASIN ISO_TIME_________ NATURE LAT LON WMO AGENCY DIST2LAND LANDFALL IFLAG USA SSHS REUNION LAT REUNION LON REUNION TYPE REUNION TNUM BOM LAT BOM LON TD9636 LAT TD9636 LON TD9636 STAGE STORM SPEED STORM DIR
Year degrees north degrees east km km 1 degrees north degrees east 1 degrees north degrees east degrees north degrees east kts degrees
1929 SI WA 1929-02-08 23:00:00 NR -14.00 125.00 70 59 __________O___ -1 -14.00 125.00 7 8 208
1929 SI WA 1929-02-09 00:00:00 NR -14.11 124.94 64 64 __________P___ -1 -14.11 124.94 7 4 216
1929 SI WA 01:00:00 NR -14.12 124.91 bom 64 55 ______O___P___ -1 -13.80 125.00 -14.22 124.88 7 4 224
1929 SI WA 03:00:00 NR -14.26 124.78 54 54 ______P___P___ -1 -13.90 124.85 -14.44 124.75 7 6 222
1929 SI WA 06:00:00 NR -14.47 124.58 65 65 ______P___P___ -1 -14.04 124.62 -14.79 124.56 7 6 224
1929 SI WA 09:00:00 NR -14.68 124.36 70 69 ______P___P___ -1 -14.21 124.38 -15.15 124.35 7 7 223
1929 SI WA 11:00:00 NR -14.86 124.20 72 72 ______P___O___ -1 -14.32 124.20 -15.40 124.20 7 7 220
1929 SI WA 12:00:00 NR -14.96 124.12 74 69 ______P___P___ -1 -14.39 124.11 -15.53 124.12 7 8 220
1929 SI WA 15:00:00 NR -15.27 123.85 72 68 ______P___P___ -1 -14.60 123.82 -15.94 123.88 7 8 221
1929 SI WA 18:00:00 NR -15.59 123.55 68 54 ______P___P___ -1 -14.84 123.48 -16.33 123.62 7 9 222
1929 SI WA 21:00:00 NR -15.91 123.23 61 44 ______P___P___ -1 -15.13 123.10 -16.69 123.37 7 9 224
1929 SI WA 23:00:00 NR -16.13 123.01 44 33 ______P___O___ -1 -15.35 122.81 -16.90 123.20 7 9 225
1929 SI WA 1929-02-10 00:00:00 NR -16.23 122.89 33 22 ______P___P___ -1 -15.47 122.66 -16.99 123.13 7 9 226
1929 SI WA 01:00:00 NR -16.33 122.78 bom 24 15 ______O___P___ -1 -15.60 122.50 -17.07 123.06 7 9 228
1929 SI WA 03:00:00 NR -16.54 122.54 30 24 ______P___P___ -1 -15.87 122.16 -17.21 122.92 7 9 228
1929 SI WA 04:00:00 NR -16.63 122.43 bom 33 24 ______O___P___ -1 -16.00 122.00 -17.27 122.86 7 8 230
1929 SI WA 06:00:00 NR -16.81 122.21 33 24 ______P___P___ -1 -16.24 121.71 -17.38 122.72 7 8 231
1929 SI WA 09:00:00 NR -17.04 121.91 43 38 ______P___P___ -1 -16.57 121.34 -17.52 122.48 7 7 232
1929 SI WA 11:00:00 NR -17.18 121.71 54 54 ______P___O___ -1 -16.76 121.13 -17.60 122.30 7 7 233
1929 SI WA 12:00:00 NR -17.25 121.62 62 62 ______P___P___ -1 -16.85 121.03 -17.65 122.20 7 7 234
1929 SI WA 15:00:00 NR -17.46 121.32 85 85 ______P___P___ -1 -17.11 120.77 -17.80 121.87 7 7 236
1929 SI WA 18:00:00 NR -17.64 121.02 116 116 ______P___P___ -1 -17.36 120.54 -17.93 121.50 7 7 239
1929 SI WA 21:00:00 NR -17.81 120.70 138 138 ______P___P___ -1 -17.59 120.32 -18.04 121.09 7 7 241
1929 SI WA 23:00:00 NR -17.92 120.48 148 148 ______P___O___ -1 -17.74 120.16 -18.10 120.80 7 7 243
1929 SI WA 1929-02-11 00:00:00 NR -17.97 120.37 152 152 ______P___P___ -1 -17.82 120.08 -18.12 120.66 7 7 245
1929 SI WA 01:00:00 NR -18.02 120.26 bom 162 162 ______O___P___ -1 -17.90 120.00 -18.14 120.51 7 7 247
1929 SI WA 03:00:00 NR -18.10 120.06 177 177 ______P___P___ -1 -18.03 119.90 -18.16 120.21 7 6 249
1929 SI WA 06:00:00 NR -18.20 119.75 192 189 ______P___P___ -1 -18.21 119.76 -18.20 119.74 7 6 249
1929 SI WA 09:00:00 NR -18.32 119.43 194 186 ______P___P___ -1 -18.39 119.62 -18.25 119.24 7 7 248
1929 SI WA 11:00:00 NR -18.41 119.20 189 178 ______P___O___ -1 -18.52 119.50 -18.30 118.90 7 7 247
1929 SI WA 12:00:00 NR -18.46 119.08 178 169 ______P___P___ -1 -18.59 119.43 -18.33 118.72 7 8 247
1929 SI WA 15:00:00 NR -18.63 118.66 172 162 ______P___P___ -1 -18.83 119.16 -18.44 118.15 7 9 245
1929 SI WA 18:00:00 NR -18.86 118.18 164 148 ______P___P___ -1 -19.12 118.78 -18.60 117.58 7 11 242
1929 SI WA 21:00:00 NR -19.15 117.63 154 138 ______P___P___ -1 -19.48 118.23 -18.81 117.03 7 12 239
1929 SI WA 23:00:00 NR -19.38 117.23 140 126 ______P___O___ -1 -19.77 117.77 -19.00 116.70 7 14 237
1929 SI WA 1929-02-12 00:00:00 NR -19.52 117.02 124 111 ______P___P___ -1 -19.93 117.50 -19.10 116.55 7 15 236
1929 SI WA 01:00:00 NR -19.66 116.80 bom 100 84 ______O___P___ -1 -20.10 117.20 -19.21 116.40 7 16 241
1929 SI WA 03:00:00 NR -19.90 116.29 88 83 ______P___P___ -1 -20.34 116.45 -19.46 116.13 7 17 237
1929 SI WA 06:00:00 NR -20.42 115.55 88 61 ______P___P___ -1 -20.96 115.33 -19.88 115.76 7 23 223
1929 SI WA 07:00:00 NR -21.01 115.21 bom 60 0 ______O___P___ -1 -21.30 115.00 -20.04 115.65 7 31 206
1929 SI WA 09:00:00 NR -21.82 114.80 0 0 ______P___P___ -1 -22.23 114.43 -20.36 115.42 7 28 203
1929 SI WA 10:00:00 NR -22.27 114.63 bom 0 0 ______O___P___ -1 -22.70 114.20 -20.53 115.31 7 26 199
1929 SI WA 11:00:00 NR -22.63 114.50 0 0 ______P___O___ -1 -23.05 114.00 -20.70 115.20 7 17 201
1929 SI WA 12:00:00 NR -22.81 114.41 0 0 ______P___P___ -1 -23.32 113.84 -20.87 115.07 7 10 204
1929 SI WA 15:00:00 NR -23.24 114.20 0 0 ______P___P___ -1 -23.76 113.57 -21.42 114.67 7 8 201
1929 SI WA 18:00:00 NR -23.54 114.10 0 0 ______P___P___ -1 -23.77 113.56 -21.98 114.31 7 5 191
1929 SI WA 21:00:00 NR -23.75 114.09 0 0 ______P___P___ -1 -23.55 113.71 -22.54 114.03 7 4 177
1929 SI WA 23:00:00 NR -23.87 114.11 0 0 ______P___O___ -1 -23.36 113.86 -22.90 113.90 7 4 167
1929 SI WA 1929-02-13 00:00:00 NR -23.93 114.13 0 0 ______P___P___ -1 -23.27 113.93 -23.07 113.86 7 4 164
1929 SI WA 01:00:00 NR -23.98 114.16 bom 0 0 ______O___P___ -1 -23.20 114.00 -23.23 113.83 7 5 170
1929 SI WA 03:00:00 NR -24.18 114.17 0 0 ______P___P___ -1 -23.32 113.98 -23.55 113.81 7 6 175
1929 SI WA 06:00:00 NR -24.48 114.20 0 0 _____OP___P___ -1 -25.90 114.80 99 9.90 -23.54 113.94 -24.00 113.87 7 6 172
1929 SI WA 09:00:00 NR -24.77 114.27 0 0 _____PP___P___ -1 -26.00 114.86 99 -23.79 113.93 -24.43 113.99 7 6 167
1929 SI WA 11:00:00 NR -24.95 114.32 0 0 _____PP___O___ -1 -26.07 114.90 99 -23.98 113.92 -24.70 114.10 7 6 166
1929 SI WA 12:00:00 NR -25.05 114.34 0 0 _____PP___P___ -1 -26.10 114.92 99 -24.08 113.92 -24.83 114.15 7 6 165
1929 SI WA 15:00:00 NR -25.32 114.43 0 0 _____PP___P___ -1 -26.20 114.99 99 -24.39 113.95 -25.22 114.31 7 6 162
1929 SI WA 18:00:00 NR -25.59 114.54 0 0 _____PP___P___ -1 -26.30 115.05 99 -24.73 114.01 -25.59 114.52 7 6 159
1929 SI WA 21:00:00 NR -25.86 114.66 0 0 _____PP___P___ -1 -26.40 115.11 99 -25.09 114.10 -25.95 114.75 7 6 156
1929 SI WA 23:00:00 NR -26.04 114.76 0 0 _____PP___O___ -1 -26.47 115.15 99 -25.34 114.19 -26.20 114.90 7 6 155
1929 SI WA 1929-02-14 00:00:00 NR -26.13 114.80 0 0 _____PP___P___ -1 -26.50 115.17 99 -25.47 114.24 -26.33 114.97 7 5 162
1929 SI WA 01:00:00 NR -26.19 114.82 bom 0 0 _____PO___P___ -1 -26.53 115.20 99 -25.60 114.30 -26.47 115.04 7 5 161
1929 SI WA 03:00:00 NR -26.37 114.90 0 0 _____PP___P___ -1 -26.60 115.24 99 -25.86 114.43 -26.75 115.19 7 7 156
1929 SI WA 06:00:00 NR -26.71 115.07 0 0 _____OP___P___ -1 -26.70 115.30 99 9.90 -26.27 114.68 -27.16 115.41 7 8 154
1929 SI WA 09:00:00 NR -27.12 115.30 0 0 ______P___P___ -1 99 -26.69 114.97 -27.55 115.64 7 9 151
1929 SI WA 11:00:00 NR -27.38 115.49 0 0 ______P___O___ -1 99 -26.97 115.18 -27.80 115.80 7 9 148
1929 SI WA 12:00:00 NR -27.51 115.59 0 0 ______P___P___ -1 99 -27.11 115.29 -27.92 115.88 7 9 145
1929 SI WA 15:00:00 NR -27.89 115.89 0 0 ______P___P___ -1 99 -27.54 115.65 -28.24 116.13 7 9 143
1929 SI WA 18:00:00 NR -28.22 116.18 0 0 ______P___P___ -1 99 -27.98 116.04 -28.54 116.38 7 9 141
1929 SI WA 21:00:00 NR -28.55 116.50 0 0 ______P___P___ -1 99 -28.42 116.44 -28.82 116.63 7 9 139
1929 SI WA 23:00:00 NR -28.78 116.74 0 0 ______P___O___ -1 99 -28.71 116.72 -29.00 116.80 7 9 134
1929 SI WA 1929-02-15 00:00:00 NR -28.85 116.86 0 0 ______P_______ -1 99 -28.85 116.86 7 10 134
1929 SI WA 01:00:00 NR -29.00 117.00 bom 0 ______O_______ -1 99 -29.00 117.00 7 11 139